createdAt,value
2023-01-17T00:00:25.438Z,59.57
2023-01-17T00:02:52.835Z,59.50
2023-01-17T00:05:37.827Z,59.45
2023-01-17T00:08:24.145Z,59.51
2023-01-17T00:10:51.517Z,59.57
2023-01-17T00:13:18.928Z,59.36
2023-01-17T00:15:46.316Z,59.52
2023-01-17T00:18:13.731Z,59.69
2023-01-17T00:20:58.637Z,59.75
2023-01-17T00:23:56.600Z,59.66
2023-01-17T00:26:24.089Z,59.65
2023-01-17T00:28:50.489Z,59.69
2023-01-17T00:31:17.035Z,59.62
2023-01-17T00:33:43.513Z,59.72
2023-01-17T00:36:10.172Z,59.57
2023-01-17T00:38:38.619Z,59.70
2023-01-17T00:41:05.992Z,59.52
2023-01-17T00:43:51.070Z,59.81
2023-01-17T00:46:36.385Z,59.73
2023-01-17T00:49:21.924Z,59.74
2023-01-17T00:52:06.705Z,59.75
2023-01-17T00:54:53.300Z,59.75
2023-01-17T00:57:38.228Z,59.58
2023-01-17T01:00:24.377Z,59.67
2023-01-17T01:03:09.235Z,59.56
2023-01-17T01:05:55.394Z,59.58
2023-01-17T01:08:41.198Z,59.77
2023-01-17T01:11:28.400Z,59.55
2023-01-17T01:14:13.545Z,59.54
2023-01-17T01:16:58.859Z,59.55
2023-01-17T01:19:44.171Z,59.57
2023-01-17T01:22:28.895Z,59.65
2023-01-17T01:25:13.695Z,59.87
2023-01-17T01:28:00.191Z,59.53
2023-01-17T01:30:45.518Z,59.46
2023-01-17T01:33:19.101Z,59.52
2023-01-17T01:35:47.353Z,59.61
2023-01-17T01:38:14.733Z,59.63
2023-01-17T01:40:45.985Z,59.58
2023-01-17T01:43:15.727Z,59.42
2023-01-17T01:45:45.982Z,59.67
2023-01-17T01:48:21.868Z,59.51
2023-01-17T01:50:49.298Z,59.56
2023-01-17T01:53:16.676Z,59.33
2023-01-17T01:55:45.345Z,59.42
2023-01-17T01:58:15.976Z,59.54
2023-01-17T02:00:43.427Z,59.15
2023-01-17T02:03:11.502Z,59.38
2023-01-17T02:05:39.616Z,59.42
2023-01-17T02:08:08.545Z,59.20
2023-01-17T02:10:36.304Z,59.32
2023-01-17T02:13:03.768Z,59.19
2023-01-17T02:15:33.820Z,59.25
2023-01-17T02:18:06.175Z,59.21
2023-01-17T02:20:49.191Z,59.11
2023-01-17T02:23:51.736Z,59.14
2023-01-17T02:26:34.375Z,59.26
2023-01-17T02:29:14.031Z,59.03
2023-01-17T02:31:44.490Z,59.16
2023-01-17T02:34:15.145Z,59.14
2023-01-17T02:36:44.246Z,59.27
2023-01-17T02:39:14.605Z,59.17
2023-01-17T02:41:43.193Z,59.10
2023-01-17T02:44:10.636Z,59.22
2023-01-17T02:46:46.381Z,59.05
2023-01-17T02:49:13.832Z,59.09
2023-01-17T02:51:48.161Z,59.07
2023-01-17T02:54:30.187Z,59.16
2023-01-17T02:57:02.266Z,59.03
2023-01-17T02:59:35.393Z,59.16
2023-01-17T03:02:10.546Z,58.97
2023-01-17T03:04:39.878Z,59.11
2023-01-17T03:07:10.129Z,59.02
2023-01-17T03:09:37.362Z,59.03
2023-01-17T03:12:05.235Z,59.15
2023-01-17T03:14:32.614Z,59.08
2023-01-17T03:17:00.017Z,59.09
2023-01-17T03:19:28.764Z,59.08
2023-01-17T03:21:56.182Z,59.02
2023-01-17T03:24:23.551Z,59.06
2023-01-17T03:26:50.925Z,58.90
2023-01-17T03:29:18.312Z,58.96
2023-01-17T03:31:46.479Z,58.86
2023-01-17T03:34:13.842Z,58.99
2023-01-17T03:36:42.637Z,58.97
2023-01-17T03:39:10.181Z,58.84
2023-01-17T03:41:37.569Z,58.77
2023-01-17T03:44:05.624Z,59.03
2023-01-17T03:46:33.064Z,58.95
2023-01-17T03:49:00.422Z,58.94
2023-01-17T03:51:27.931Z,58.87
2023-01-17T03:53:56.624Z,58.86
2023-01-17T03:56:24.036Z,58.58
2023-01-17T03:58:51.557Z,58.80
2023-01-17T04:01:19.007Z,58.78
2023-01-17T04:03:46.455Z,58.70
2023-01-17T04:06:13.832Z,58.80
2023-01-17T04:08:41.512Z,58.64
2023-01-17T04:11:10.210Z,58.78
2023-01-17T04:13:37.630Z,58.77
2023-01-17T04:16:05.633Z,58.66
2023-01-17T04:18:33.035Z,58.67
2023-01-17T04:21:00.433Z,58.71
2023-01-17T04:23:27.863Z,58.58
2023-01-17T04:25:55.236Z,58.85
2023-01-17T04:28:23.929Z,58.82
2023-01-17T04:30:51.427Z,58.64
2023-01-17T04:33:18.838Z,58.63
2023-01-17T04:35:46.331Z,58.52
2023-01-17T04:38:13.707Z,58.45
2023-01-17T04:40:41.109Z,58.41
2023-01-17T04:43:08.513Z,58.33
2023-01-17T04:45:38.661Z,58.32
2023-01-17T04:48:06.011Z,58.40
2023-01-17T04:50:33.412Z,58.42
2023-01-17T04:53:00.867Z,58.25
2023-01-17T04:55:28.271Z,58.43
2023-01-17T04:57:55.658Z,58.41
2023-01-17T05:00:24.242Z,58.35
2023-01-17T05:02:53.144Z,58.35
2023-01-17T05:05:20.602Z,58.66
2023-01-17T05:07:54.245Z,58.21
2023-01-17T05:10:21.649Z,58.37
2023-01-17T05:12:54.784Z,58.14
2023-01-17T05:15:22.183Z,58.23
2023-01-17T05:17:49.574Z,58.21
2023-01-17T05:20:18.559Z,58.29
2023-01-17T05:22:47.230Z,58.37
2023-01-17T05:25:15.104Z,58.29
2023-01-17T05:27:42.503Z,58.13
2023-01-17T05:30:11.374Z,58.25
2023-01-17T05:32:38.786Z,58.05
2023-01-17T05:35:07.210Z,57.98
2023-01-17T05:37:35.966Z,58.10
2023-01-17T05:40:03.574Z,57.98
2023-01-17T05:42:30.960Z,57.83
2023-01-17T05:44:58.336Z,57.82
2023-01-17T05:47:25.708Z,57.77
2023-01-17T05:49:53.069Z,57.87
2023-01-17T05:52:20.503Z,57.73
2023-01-17T05:54:50.517Z,57.77
2023-01-17T05:57:18.024Z,57.73
2023-01-17T05:59:45.378Z,57.59
2023-01-17T06:02:12.786Z,57.68
2023-01-17T06:04:40.167Z,57.64
2023-01-17T06:07:07.580Z,57.40
2023-01-17T06:09:34.971Z,57.41
2023-01-17T06:12:03.791Z,57.39
2023-01-17T06:14:31.226Z,57.30
2023-01-17T06:16:58.614Z,57.47
2023-01-17T06:19:25.983Z,57.32
2023-01-17T06:21:53.370Z,57.21
2023-01-17T06:24:20.803Z,57.27
2023-01-17T06:26:48.191Z,57.22
2023-01-17T06:29:16.876Z,57.22
2023-01-17T06:31:44.251Z,57.11
2023-01-17T06:34:11.634Z,57.15
2023-01-17T06:36:39.086Z,57.08
2023-01-17T06:39:06.469Z,56.95
2023-01-17T06:41:33.845Z,57.04
2023-01-17T06:44:01.215Z,57.05
2023-01-17T06:46:30.021Z,56.92
2023-01-17T06:48:57.438Z,56.97
2023-01-17T06:51:24.900Z,57.06
2023-01-17T06:53:52.277Z,56.94
2023-01-17T06:56:19.686Z,57.01
2023-01-17T06:58:49.682Z,57.00
2023-01-17T07:01:17.251Z,56.93
2023-01-17T07:03:46.167Z,56.73
2023-01-17T07:06:13.595Z,56.76
2023-01-17T07:08:41.006Z,56.68
2023-01-17T07:11:08.741Z,56.59
2023-01-17T07:13:36.568Z,56.49
2023-01-17T07:16:04.184Z,56.54
2023-01-17T07:18:31.729Z,56.48
2023-01-17T07:21:00.522Z,56.48
2023-01-17T07:23:27.920Z,56.61
2023-01-17T07:28:16.042Z,56.32
2023-01-17T07:30:43.423Z,56.35
2023-01-17T07:33:10.793Z,54.14
2023-01-17T07:35:38.210Z,54.19
2023-01-17T07:38:11.228Z,54.83
2023-01-17T07:40:42.228Z,55.50
2023-01-17T07:43:13.931Z,55.90
2023-01-17T07:45:42.955Z,56.20
2023-01-17T07:48:10.394Z,56.52
2023-01-17T07:50:37.751Z,56.77
2023-01-17T07:53:06.651Z,56.80
2023-01-17T07:55:34.111Z,56.70
2023-01-17T07:58:03.051Z,56.81
2023-01-17T08:00:30.687Z,57.30
2023-01-17T08:02:58.164Z,57.47
2023-01-17T08:05:25.696Z,56.68
2023-01-17T08:07:53.114Z,56.81
2023-01-17T08:10:22.484Z,56.91
2023-01-17T08:12:50.511Z,54.30
2023-01-17T08:15:18.191Z,55.83
2023-01-17T08:17:48.701Z,57.01
2023-01-17T08:20:16.395Z,57.06
2023-01-17T08:22:43.790Z,57.08
2023-01-17T08:25:11.278Z,57.02
2023-01-17T08:27:40.006Z,56.92
2023-01-17T08:30:08.496Z,56.86
2023-01-17T08:32:35.911Z,56.88
2023-01-17T08:35:03.318Z,56.67
2023-01-17T08:37:30.718Z,56.58
2023-01-17T08:39:58.079Z,56.70
2023-01-17T08:42:25.472Z,56.75
2023-01-17T08:44:54.288Z,56.97
2023-01-17T08:47:21.687Z,57.36
2023-01-17T08:49:49.042Z,57.79
2023-01-17T08:52:16.420Z,57.99
2023-01-17T08:54:43.798Z,58.21
2023-01-17T08:57:11.198Z,58.35
2023-01-17T08:59:38.575Z,57.93
2023-01-17T09:02:14.750Z,57.94
2023-01-17T09:04:44.656Z,57.99
2023-01-17T09:07:12.043Z,57.79
2023-01-17T09:09:39.482Z,57.78
2023-01-17T09:12:07.485Z,57.46
2023-01-17T09:14:34.879Z,53.61
2023-01-17T09:17:02.442Z,54.15
2023-01-17T09:19:31.179Z,55.46
2023-01-17T09:21:58.569Z,55.90
2023-01-17T09:24:25.948Z,56.13
2023-01-17T09:26:53.359Z,56.06
2023-01-17T09:29:21.007Z,56.11
2023-01-17T09:31:48.665Z,56.02
2023-01-17T09:34:16.066Z,55.86
2023-01-17T09:36:44.896Z,55.66
2023-01-17T09:39:14.819Z,55.83
2023-01-17T09:41:46.862Z,55.81
2023-01-17T09:44:22.381Z,55.93
2023-01-17T09:46:50.020Z,55.80
2023-01-17T09:49:23.050Z,55.58
2023-01-17T09:51:51.752Z,55.58
2023-01-17T09:54:21.543Z,55.62
2023-01-17T09:56:51.731Z,55.80
2023-01-17T09:59:32.289Z,55.69
2023-01-17T10:02:05.438Z,55.94
2023-01-17T10:04:41.695Z,55.94
2023-01-17T10:07:16.023Z,56.08
2023-01-17T10:09:50.295Z,56.13
2023-01-17T10:12:23.079Z,55.56
2023-01-17T10:14:57.421Z,55.60
2023-01-17T10:17:30.698Z,55.64
2023-01-17T10:20:04.817Z,55.73
2023-01-17T10:22:46.355Z,55.53
2023-01-17T10:25:23.996Z,55.49
2023-01-17T10:27:56.476Z,55.57
2023-01-17T10:30:24.443Z,55.43
2023-01-17T10:32:51.834Z,55.25
2023-01-17T10:35:22.074Z,55.21
2023-01-17T10:37:51.122Z,55.21
2023-01-17T10:40:20.653Z,54.97
2023-01-17T10:42:50.936Z,55.14
2023-01-17T10:45:20.861Z,55.03
2023-01-17T10:47:49.765Z,55.12
2023-01-17T10:50:18.103Z,55.24
2023-01-17T10:52:48.028Z,55.10
2023-01-17T10:55:25.229Z,54.90
2023-01-17T10:57:52.622Z,54.86
2023-01-17T11:00:29.779Z,54.85
2023-01-17T11:02:57.379Z,54.85
2023-01-17T11:05:26.506Z,54.88
2023-01-17T11:08:00.997Z,54.88
2023-01-17T11:10:39.778Z,54.77
2023-01-17T11:13:07.781Z,54.83
2023-01-17T11:15:36.023Z,55.04
2023-01-17T11:18:04.301Z,54.86
2023-01-17T11:20:34.195Z,54.96
2023-01-17T11:23:04.051Z,54.91
2023-01-17T11:25:33.817Z,54.93
2023-01-17T11:28:04.667Z,55.01
2023-01-17T11:30:32.047Z,54.75
2023-01-17T11:32:59.856Z,54.65
2023-01-17T11:35:28.890Z,54.70
2023-01-17T11:38:04.500Z,54.74
2023-01-17T11:40:32.753Z,54.81
2023-01-17T11:43:03.232Z,54.66
2023-01-17T11:45:31.080Z,54.75
2023-01-17T11:48:16.039Z,54.68
2023-01-17T11:50:45.488Z,54.80
2023-01-17T11:53:24.347Z,54.42
2023-01-17T11:56:00.147Z,54.61
2023-01-17T11:58:28.944Z,54.73
2023-01-17T12:01:01.870Z,54.73
2023-01-17T12:03:37.567Z,54.64
2023-01-17T12:06:08.258Z,54.62
2023-01-17T12:08:48.053Z,54.63
2023-01-17T12:11:19.604Z,54.60
2023-01-17T12:14:00.959Z,54.66
2023-01-17T12:16:38.119Z,54.67
2023-01-17T12:19:21.580Z,54.64
2023-01-17T12:21:53.079Z,54.71
2023-01-17T12:24:30.058Z,54.64
2023-01-17T12:27:00.376Z,54.61
2023-01-17T12:29:48.545Z,54.53
2023-01-17T12:32:30.632Z,54.63
2023-01-17T12:35:00.574Z,54.53
2023-01-17T12:37:32.655Z,54.54
2023-01-17T12:40:06.857Z,54.44
2023-01-17T12:42:36.161Z,54.49
2023-01-17T12:45:06.615Z,54.51
2023-01-17T12:47:34.426Z,54.37
2023-01-17T12:50:05.379Z,54.44
2023-01-17T12:52:46.682Z,54.47
2023-01-17T12:55:17.732Z,54.47
2023-01-17T12:57:46.157Z,54.45
2023-01-17T13:00:19.548Z,54.36
2023-01-17T13:02:50.440Z,54.38
2023-01-17T13:05:23.538Z,54.33
2023-01-17T13:07:54.779Z,54.23
2023-01-17T13:10:25.996Z,54.27
2023-01-17T13:12:53.534Z,54.17
2023-01-17T13:15:23.794Z,54.19
2023-01-17T13:17:52.004Z,54.06
2023-01-17T13:20:22.532Z,54.03
2023-01-17T13:22:50.102Z,53.96
2023-01-17T13:25:29.657Z,53.76
2023-01-17T13:28:15.048Z,53.86
2023-01-17T13:30:58.687Z,54.01
2023-01-17T13:33:38.016Z,54.04
2023-01-17T13:36:25.323Z,53.81
2023-01-17T13:39:01.863Z,53.46
2023-01-17T13:41:37.974Z,53.87
2023-01-17T13:44:24.306Z,53.77
2023-01-17T13:47:24.390Z,53.77
2023-01-17T13:49:56.242Z,53.70
2023-01-17T13:52:33.391Z,53.82
2023-01-17T13:55:01.820Z,53.53
2023-01-17T13:57:41.817Z,53.71
2023-01-17T14:00:52.238Z,53.67
2023-01-17T14:03:55.458Z,53.46
2023-01-17T14:06:34.506Z,53.52
2023-01-17T14:09:03.074Z,53.38
2023-01-17T14:11:33.561Z,53.56
2023-01-17T14:14:34.228Z,53.47
2023-01-17T14:17:46.631Z,53.41
2023-01-17T14:20:36.052Z,53.16
2023-01-17T14:23:14.942Z,52.84
2023-01-17T14:25:42.462Z,52.93
2023-01-17T14:28:22.056Z,52.62
2023-01-17T14:30:54.090Z,52.74
2023-01-17T14:33:26.073Z,52.77
2023-01-17T14:35:55.537Z,52.75
2023-01-17T14:38:25.172Z,52.89
2023-01-17T14:40:53.546Z,52.69
2023-01-17T14:43:21.497Z,52.99
2023-01-17T14:45:48.984Z,52.97
2023-01-17T14:48:16.925Z,53.16
2023-01-17T14:50:45.018Z,53.15
2023-01-17T14:53:20.353Z,53.25
2023-01-17T14:55:53.287Z,53.29
2023-01-17T14:58:21.416Z,53.20
2023-01-17T15:00:49.971Z,53.30
2023-01-17T15:03:17.696Z,53.16
2023-01-17T15:05:46.573Z,53.32
2023-01-17T15:08:14.554Z,53.35
2023-01-17T15:10:47.691Z,53.27
2023-01-17T15:13:19.432Z,53.31
2023-01-17T15:15:48.692Z,53.34
2023-01-17T15:18:25.727Z,53.33
2023-01-17T15:20:56.254Z,53.14
2023-01-17T15:23:24.180Z,53.23
2023-01-17T15:25:52.277Z,53.26
2023-01-17T15:28:21.327Z,53.40
2023-01-17T15:31:16.201Z,53.25
2023-01-17T15:33:44.699Z,53.20
2023-01-17T15:36:23.296Z,53.27
2023-01-17T15:38:55.162Z,53.31
2023-01-17T15:41:23.719Z,53.35
2023-01-17T15:43:57.351Z,53.34
2023-01-17T15:46:28.270Z,53.37
2023-01-17T15:49:08.698Z,53.37
2023-01-17T15:51:38.118Z,53.26
2023-01-17T15:54:34.449Z,53.32
2023-01-17T15:57:06.548Z,53.53
2023-01-17T15:59:42.817Z,53.56
2023-01-17T16:02:33.649Z,53.61
2023-01-17T16:05:01.387Z,53.60
2023-01-17T16:07:31.683Z,53.67
2023-01-17T16:10:03.053Z,53.50
2023-01-17T16:12:30.418Z,53.79
2023-01-17T16:15:11.731Z,53.76
2023-01-17T16:17:40.287Z,53.92
2023-01-17T16:20:15.870Z,53.84
2023-01-17T16:22:43.872Z,53.71
2023-01-17T16:25:14.705Z,53.78
2023-01-17T16:27:43.094Z,53.94
2023-01-17T16:30:15.160Z,53.90
2023-01-17T16:32:42.685Z,53.95
2023-01-17T16:35:14.288Z,53.96
2023-01-17T16:37:41.727Z,53.82
2023-01-17T16:40:10.439Z,53.92
2023-01-17T16:42:37.820Z,54.07
2023-01-17T16:45:05.895Z,53.96
2023-01-17T16:47:34.585Z,53.82
2023-01-17T16:50:02.140Z,53.76
2023-01-17T16:52:29.523Z,53.90
2023-01-17T16:54:56.899Z,54.12
2023-01-17T16:57:24.265Z,54.04
2023-01-17T16:59:52.243Z,54.14
2023-01-17T17:02:19.693Z,54.14
2023-01-17T17:04:48.430Z,54.07
2023-01-17T17:07:15.907Z,54.19
2023-01-17T17:09:43.310Z,54.27
2023-01-17T17:12:10.678Z,54.27
2023-01-17T17:14:38.162Z,54.20
2023-01-17T17:17:06.513Z,54.28
2023-01-17T17:19:34.390Z,54.09
2023-01-17T17:22:03.092Z,54.23
2023-01-17T17:24:30.482Z,54.36
2023-01-17T17:26:57.845Z,54.31
2023-01-17T17:29:25.312Z,54.27
2023-01-17T17:31:53.578Z,54.35
2023-01-17T17:34:22.291Z,54.24
2023-01-17T17:36:49.671Z,54.35
2023-01-17T17:39:18.364Z,54.36
2023-01-17T17:41:45.955Z,54.56
2023-01-17T17:44:13.529Z,54.52
2023-01-17T17:46:42.805Z,54.37
2023-01-17T17:49:10.243Z,54.37
2023-01-17T17:51:38.302Z,54.34
2023-01-17T17:54:06.618Z,54.22
2023-01-17T17:56:35.373Z,54.33
2023-01-17T17:59:03.244Z,54.16
2023-01-17T18:01:30.843Z,54.24
2023-01-17T18:04:03.006Z,54.29
2023-01-17T18:06:30.510Z,54.44
2023-01-17T18:08:57.883Z,54.32
2023-01-17T18:11:26.581Z,54.27
2023-01-17T18:13:55.912Z,54.26
2023-01-17T18:16:24.211Z,54.33
2023-01-17T18:18:52.657Z,54.26
2023-01-17T18:21:23.429Z,54.25
2023-01-17T18:23:51.697Z,54.24
2023-01-17T18:26:19.931Z,54.25
2023-01-17T18:28:47.357Z,54.30
2023-01-17T18:31:16.273Z,54.19
2023-01-17T18:33:43.646Z,54.26
2023-01-17T18:36:11.929Z,54.16
2023-01-17T18:38:39.537Z,54.11
2023-01-17T18:41:07.324Z,54.09
2023-01-17T18:43:35.091Z,54.13
2023-01-17T18:46:02.474Z,54.25
2023-01-17T18:48:31.142Z,54.09
2023-01-17T18:50:58.595Z,54.17
2023-01-17T18:53:25.987Z,54.11
2023-01-17T18:55:56.986Z,54.22
2023-01-17T18:58:24.557Z,54.23
2023-01-17T19:00:52.509Z,54.06
2023-01-17T19:03:20.319Z,54.09
2023-01-17T19:05:49.010Z,54.11
2023-01-17T19:08:16.587Z,54.17
2023-01-17T19:10:44.290Z,54.09
2023-01-17T19:13:11.757Z,54.01
2023-01-17T19:15:39.132Z,54.02
2023-01-17T19:18:06.588Z,54.08
2023-01-17T19:20:35.033Z,54.05
2023-01-17T19:23:03.757Z,53.94
2023-01-17T19:25:31.134Z,53.79
2023-01-17T19:27:58.761Z,53.98
2023-01-17T19:30:26.206Z,53.93
2023-01-17T19:32:53.580Z,53.83
2023-01-17T19:35:22.668Z,53.89
2023-01-17T19:37:51.635Z,53.88
2023-01-17T19:40:20.574Z,53.88
2023-01-17T19:42:48.027Z,53.73
2023-01-17T19:45:15.522Z,53.86
2023-01-17T19:47:42.881Z,53.81
2023-01-17T19:50:12.392Z,53.71
2023-01-17T19:52:39.922Z,53.48
2023-01-17T19:55:09.675Z,53.80
2023-01-17T19:57:40.448Z,53.53
2023-01-17T20:00:09.358Z,53.72
2023-01-17T20:02:38.073Z,53.50
2023-01-17T20:05:06.016Z,53.81
2023-01-17T20:07:33.626Z,53.68
2023-01-17T20:10:01.000Z,53.67
2023-01-17T20:12:28.379Z,53.48
2023-01-17T20:14:57.050Z,53.45
2023-01-17T20:17:24.416Z,53.53
2023-01-17T20:19:51.826Z,53.42
2023-01-17T20:22:19.209Z,53.74
2023-01-17T20:24:46.583Z,53.50
2023-01-17T20:27:13.966Z,53.11
2023-01-17T20:29:41.460Z,53.35
2023-01-17T20:32:10.154Z,53.32
2023-01-17T20:34:37.530Z,53.31
2023-01-17T20:37:04.903Z,53.27
2023-01-17T20:39:32.649Z,53.23
2023-01-17T20:42:00.052Z,53.36
2023-01-17T20:44:27.477Z,53.17
2023-01-17T20:46:54.861Z,53.17
2023-01-17T20:49:23.831Z,53.01
2023-01-17T20:51:51.243Z,53.09
2023-01-17T20:54:19.262Z,53.03
2023-01-17T20:56:47.266Z,53.23
2023-01-17T20:59:15.624Z,53.16
2023-01-17T21:01:44.270Z,52.71
2023-01-17T21:04:11.788Z,52.96
2023-01-17T21:06:41.216Z,53.13
2023-01-17T21:09:09.423Z,53.05
2023-01-17T21:11:37.452Z,52.95
2023-01-17T21:14:05.561Z,52.89
2023-01-17T21:16:34.099Z,52.90
2023-01-17T21:19:01.651Z,53.03
2023-01-17T21:21:29.747Z,52.95
2023-01-17T21:23:59.081Z,52.59
2023-01-17T21:26:27.149Z,52.65
2023-01-17T21:28:54.678Z,52.66
2023-01-17T21:31:23.789Z,52.84
2023-01-17T21:33:52.362Z,52.66
2023-01-17T21:36:19.886Z,52.65
2023-01-17T21:38:49.563Z,52.65
2023-01-17T21:41:18.780Z,52.66
2023-01-17T21:43:46.325Z,52.57
2023-01-17T21:46:13.851Z,52.74
2023-01-17T21:48:41.251Z,52.65
2023-01-17T21:51:09.017Z,52.67
2023-01-17T21:53:36.485Z,52.68
2023-01-17T21:56:21.735Z,52.57
2023-01-17T21:58:53.754Z,52.49
2023-01-17T22:01:22.502Z,52.49
2023-01-17T22:03:50.964Z,52.37
2023-01-17T22:06:18.428Z,52.33
2023-01-17T22:08:45.824Z,52.29
2023-01-17T22:11:14.230Z,52.39
2023-01-17T22:13:42.630Z,52.36
2023-01-17T22:16:12.700Z,52.48
2023-01-17T22:18:40.494Z,52.08
2023-01-17T22:21:08.756Z,52.38
2023-01-17T22:23:36.333Z,52.20
2023-01-17T22:26:04.564Z,52.21
2023-01-17T22:28:32.733Z,52.10
2023-01-17T22:31:00.450Z,52.10
2023-01-17T22:33:29.178Z,52.22
2023-01-17T22:35:59.454Z,52.17
2023-01-17T22:38:26.843Z,52.25
2023-01-17T22:40:55.136Z,52.21
2023-01-17T22:43:22.553Z,52.19
2023-01-17T22:45:49.944Z,52.03
2023-01-17T22:48:17.306Z,52.06
2023-01-17T22:50:46.235Z,52.08
2023-01-17T22:53:13.737Z,52.14
2023-01-17T22:55:41.128Z,51.94
2023-01-17T22:58:08.545Z,52.01
2023-01-17T23:00:35.999Z,51.97
2023-01-17T23:03:03.523Z,52.03
2023-01-17T23:05:31.011Z,51.99
2023-01-17T23:08:02.090Z,51.81
2023-01-17T23:10:47.534Z,51.72
2023-01-17T23:13:15.232Z,51.89
2023-01-17T23:16:00.057Z,51.80
2023-01-17T23:18:45.486Z,51.76
2023-01-17T23:21:12.857Z,51.91
2023-01-17T23:23:41.560Z,51.90
2023-01-17T23:26:08.950Z,51.73
2023-01-17T23:28:35.391Z,51.84
2023-01-17T23:31:04.776Z,51.75
2023-01-17T23:33:32.231Z,51.58
2023-01-17T23:35:59.637Z,51.74
2023-01-17T23:38:26.165Z,51.61
2023-01-17T23:41:12.765Z,51.66
2023-01-17T23:43:40.121Z,51.80
2023-01-17T23:46:10.998Z,51.88
2023-01-17T23:48:38.426Z,51.57
2023-01-17T23:51:07.797Z,51.68
2023-01-17T23:53:35.486Z,51.53
2023-01-17T23:56:07.055Z,51.46
2023-01-17T23:58:35.026Z,51.45
